METAR Data
IDs: Format: Raw Decoded Include TAF

Data at: 0324 UTC 19 Feb 2019

K4R5 190315Z AUTO 00000KT 10SM SCT110 M21/M22 A3050 RMK AO2 T12061225
K4R5 190255Z AUTO 00000KT 10SM CLR M21/M23 A3050 RMK AO2 T12081227
K4R5 190235Z AUTO 00000KT 10SM CLR M20/M22 A3050 RMK AO2 T12041223
K4R5 190215Z AUTO 00000KT 10SM CLR M20/M22 A3050 RMK AO2 T12001219
K4R5 190155Z AUTO 00000KT 10SM CLR M20/M22 A3050 RMK AO2 T12001221
K4R5 190135Z AUTO 00000KT 10SM CLR M19/M21 A3050 RMK AO2 T11931210
K4R5 190115Z AUTO 00000KT 10SM CLR M19/M21 A3050 RMK AO2 T11931210
K4R5 190055Z AUTO 22003KT 10SM CLR M18/M20 A3050 RMK AO2 T11851200
K4R5 190035Z AUTO 00000KT 10SM CLR M18/M20 A3049 RMK AO2 T11821203
K4R5 190015Z AUTO 00000KT 10SM CLR M17/M19 A3048 RMK AO2 T11661192
K4R5 182355Z AUTO 00000KT 10SM CLR M16/M19 A3048 RMK AO2 T11561186
K4R5 182335Z AUTO 00000KT 10SM CLR M14/M18 A3048 RMK AO2 T11361177
K4R5 182315Z AUTO 00000KT 10SM CLR M11/M17 A3048 RMK AO2 T11141174
K4R5 182255Z AUTO 00000KT 10SM CLR M10/M17 A3048 RMK AO2 T11051172
K4R5 182235Z AUTO 00000KT 10SM CLR M11/M17 A3048 RMK AO2 T11071175
K4R5 182215Z AUTO 00000KT 10SM CLR M11/M17 A3048 RMK AO2 T11091174
K4R5 182155Z AUTO 02003KT 10SM CLR M10/M17 A3048 RMK AO2 T11051175
K4R5 182135Z AUTO 01004KT 10SM CLR M10/M17 A3047 RMK AO2 T11051172
K4R5 182115Z AUTO 02004KT 10SM CLR M10/M17 A3047 RMK AO2 T11031172
K4R5 182055Z AUTO 01004KT 10SM CLR M10/M17 A3046 RMK AO2 T11021170
K4R5 182035Z AUTO 01004KT 10SM CLR M10/M17 A3047 RMK AO2 T11021170
K4R5 182015Z AUTO 02003KT 10SM CLR M10/M17 A3047 RMK AO2 T11021167
K4R5 181955Z AUTO 01003KT 10SM CLR M10/M17 A3047 RMK AO2 T11051168
K4R5 181935Z AUTO 01003KT 10SM CLR M10/M17 A3047 RMK AO2 T11051170
K4R5 181915Z AUTO 01004KT 10SM CLR M11/M17 A3047 RMK AO2 T11061170
K4R5 181855Z AUTO 06003KT 10SM CLR M11/M17 A3047 RMK AO2 T11061170
K4R5 181835Z AUTO 02004KT 10SM CLR M11/M17 A3047 RMK AO2 T11101175
K4R5 181815Z AUTO 01004KT 10SM CLR M11/M17 A3048 RMK AO2 T11101175
K4R5 181755Z AUTO 36003KT 10SM CLR M11/M17 A3047 RMK AO2 T11091175
K4R5 181735Z AUTO 00000KT 10SM CLR M11/M18 A3047 RMK AO2 T11111176
K4R5 181715Z AUTO 00000KT 10SM CLR M11/M18 A3047 RMK AO2 T11151179
K4R5 181655Z AUTO 00000KT 10SM CLR M12/M18 A3047 RMK AO2 T11181180
K4R5 181635Z AUTO 00000KT 10SM CLR M12/M18 A3046 RMK AO2 T11211180
K4R5 181615Z AUTO 02003KT 10SM CLR M12/M17 A3046 RMK AO2 T11251175
K4R5 181555Z AUTO 02004KT 10SM CLR M12/M17 A3045 RMK AO2 T11251175
K4R5 181535Z AUTO 02004KT 10SM CLR M13/M18 A3044 RMK AO2 T11281176
K4R5 181515Z AUTO 02003KT 10SM CLR M13/M18 A3043 RMK AO2 T11321178
K4R5 181455Z AUTO 02003KT 10SM CLR M14/M18 A3043 RMK AO2 T11361179
K4R5 181435Z AUTO 00000KT 10SM SCT023 M15/M18 A3042 RMK AO2 T11481181
K4R5 181415Z AUTO 00000KT 10SM OVC021 M15/M18 A3042 RMK AO2 T11481180
K4R5 181355Z AUTO 00000KT 10SM OVC021 M15/M18 A3041 RMK AO2 T11541181
K4R5 181335Z AUTO 00000KT 10SM OVC021 M17/M19 A3039 RMK AO2 T11661190
K4R5 181315Z AUTO 00000KT 10SM OVC021 M15/M18 A3038 RMK AO2 T11541183
K4R5 181255Z AUTO 35003KT 10SM OVC021 M15/M18 A3038 RMK AO2 T11501179
K4R5 181235Z AUTO 00000KT 10SM OVC021 M15/M17 A3037 RMK AO2 T11461175
K4R5 181215Z AUTO 00000KT 10SM OVC021 M14/M17 A3037 RMK AO2 T11431174
K4R5 181155Z AUTO 03003KT 10SM OVC021 M14/M17 A3036 RMK AO2 T11391171
K4R5 181135Z AUTO 00000KT 10SM OVC021 M14/M17 A3036 RMK AO2 T11371169
K4R5 181115Z AUTO 03004KT 10SM OVC019 M14/M17 A3035 RMK AO2 T11361168
K4R5 181055Z AUTO 03003KT 10SM OVC019 M14/M17 A3035 RMK AO2 T11381170
K4R5 181035Z AUTO 01004KT 10SM OVC019 M13/M17 A3034 RMK AO2 T11351168
K4R5 181015Z AUTO 03004KT 10SM OVC019 M13/M17 A3033 RMK AO2 T11351167
K4R5 180955Z AUTO 01004KT 10SM OVC019 M13/M17 A3033 RMK AO2 T11351167
K4R5 180935Z AUTO 02004KT 10SM OVC019 M14/M17 A3032 RMK AO2 T11401170
K4R5 180915Z AUTO 01003KT 10SM OVC019 M14/M17 A3032 RMK AO2 T11431171
K4R5 180855Z AUTO 00000KT 10SM OVC019 M16/M18 A3031 RMK AO2 T11621185
K4R5 180835Z AUTO 36003KT 10SM BKN019 M16/M19 A3031 RMK AO2 T11651188
K4R5 180815Z AUTO 01004KT 10SM SCT019 M16/M18 A3030 RMK AO2 T11571179
K4R5 180755Z AUTO 01003KT 10SM CLR M16/M18 A3030 RMK AO2 T11601184
K4R5 180735Z AUTO 36003KT 10SM CLR M16/M18 A3030 RMK AO2 T11561185
K4R5 180715Z AUTO 03004KT 10SM CLR M13/M17 A3029 RMK AO2 T11281169
K4R5 180655Z AUTO 05004KT 10SM CLR M12/M16 A3028 RMK AO2 T11251165
K4R5 180635Z AUTO 05005KT 10SM SCT023 M12/M16 A3028 RMK AO2 T11211156
K4R5 180615Z AUTO 05005KT 10SM BKN023 M12/M15 A3027 RMK AO2 T11221148
K4R5 180555Z AUTO 05003KT 10SM SCT025 M19/M21 A3026 RMK AO2 T11901209
K4R5 180535Z AUTO 02003KT 10SM CLR M20/M22 A3025 RMK AO2 T11991219
K4R5 180515Z AUTO 01003KT 10SM CLR M19/M21 A3025 RMK AO2 T11901208
K4R5 180455Z AUTO 00000KT 10SM CLR M19/M21 A3025 RMK AO2 T11921210
K4R5 180435Z AUTO 00000KT 10SM CLR M19/M20 A3024 RMK AO2 T11871205
K4R5 180415Z AUTO 01003KT 10SM SCT110 M17/M19 A3023 RMK AO2 T11721186
K4R5 180355Z AUTO 00000KT 10SM OVC120 M16/M18 A3023 RMK AO2 T11601178
K4R5 180335Z AUTO 01003KT 10SM SCT120 M13/M16 A3022 RMK AO2 T11351159
K4R5 180315Z AUTO 01003KT 10SM SCT110 M16/M17 A3021 RMK AO2 T11571170
K4R5 180255Z AUTO 36003KT 10SM SCT120 M13/M16 A3021 RMK AO2 T11341156
K4R5 180215Z AUTO 36003KT 10SM CLR M13/M15 A3020 RMK AO2 T11311154
K4R5 180155Z AUTO 00000KT 10SM CLR M12/M15 A3020 RMK AO2 T11231150
K4R5 180135Z AUTO 01003KT 10SM CLR M12/M15 A3020 RMK AO2 T11241151
K4R5 180115Z AUTO 36004KT 10SM CLR M12/M15 A3020 RMK AO2 T11241154
K4R5 180055Z AUTO 02004KT 10SM SCT090 SCT110 M11/M15 A3019 RMK AO2 T11081147
K4R5 180035Z AUTO 04003KT 10SM SCT090 SCT120 M10/M14 A3019 RMK AO2 T11051145
K4R5 180015Z AUTO 00000KT 10SM CLR M10/M14 A3018 RMK AO2 T11001142
K4R5 172355Z AUTO 06005KT 10SM CLR M10/M14 A3017 RMK AO2 T10961137
K4R5 172335Z AUTO 05006KT 10SM BKN028 M09/M14 A3017 RMK AO2 T10921137
K4R5 172315Z AUTO 06008KT 020V080 10SM OVC028 M09/M13 A3017 RMK AO2 T10881130
K4R5 172255Z AUTO 04004KT 10SM OVC030 M09/M13 A3016 RMK AO2 T10861130
K4R5 172235Z AUTO 04007KT 10SM -SN OVC030 M08/M12 A3016 RMK AO2 T10841122
K4R5 172215Z AUTO 03006KT 7SM -SN OVC030 M08/M12 A3015 RMK AO2 T10821118
K4R5 172155Z AUTO 04005KT 10SM -SN OVC028 M08/M12 A3015 RMK AO2 T10821119
K4R5 172135Z AUTO 05006KT 7SM -SN SCT018 OVC026 M08/M12 A3015 RMK AO2 T10801117
K4R5 172115Z AUTO 04007KT 010V080 10SM -SN SCT011 SCT016 OVC024 M08/M12 A3015 RMK AO2 T10801120
K4R5 172055Z AUTO 03007KT 5SM -SN OVC022 M08/M12 A3015 RMK AO2 T10811121
K4R5 172035Z AUTO 03007KT 010V080 10SM OVC024 M08/M13 A3015 RMK AO2 T10821130
K4R5 172015Z AUTO 03008KT 10SM BKN024 BKN030 M08/M13 A3015 RMK AO2 T10811127
K4R5 171955Z AUTO 03005KT 10SM BKN026 M08/M13 A3015 RMK AO2 T10811130
K4R5 171935Z AUTO 02008KT 10SM SCT026 M08/M13 A3015 RMK AO2 T10811131
K4R5 171915Z AUTO 05005KT 10SM SCT026 M07/M13 A3016 RMK AO2 T10751130
K4R5 171855Z AUTO 03009KT 10SM BKN024 M08/M13 A3016 RMK AO2 T10761129
K4R5 171835Z AUTO 03007KT 360V070 10SM OVC022 M07/M12 A3017 RMK AO2 T10751125
K4R5 171815Z AUTO 04008KT 10SM OVC020 M07/M12 A3017 RMK AO2 T10661118
K4R5 171755Z AUTO 05006KT 7SM -SN BKN016 OVC025 M07/M11 A3017 RMK AO2 T10751114
K4R5 171735Z AUTO 05004KT 2 1/2SM -SN OVC016 M08/M11 A3018 RMK AO2 T10791109
K4R5 171715Z AUTO 04004KT 3SM -SN OVC020 M07/M11 A3018 RMK AO2 T10741111
K4R5 171655Z AUTO 08004KT 4SM -SN BKN018 OVC026 M07/M11 A3017 RMK AO2 T10721115
K4R5 171635Z AUTO 07006KT 3SM -SN OVC024 M07/M11 A3017 RMK AO2 T10751113
K4R5 171615Z AUTO 09004KT 5SM -SN OVC022 M07/M11 A3017 RMK AO2 T10751115
K4R5 171555Z AUTO 07006KT 7SM -SN OVC022 M08/M12 A3017 RMK AO2 T10781119
K4R5 171535Z AUTO 09007KT 060V120 7SM -SN OVC020 M08/M12 A3017 RMK AO2 T10781118